Flight Track Log - Related Links

Times and Time Zones

All times are in EDT time to prevent confusion due to time zone crossing. See the ASQ5272 flight status page for this flight to view local times or setup timezone preferences in your user account.

Time Position Orientation Groundspeed Altitude Reporting Facility
EDT Latitude Longitude Course Direction KTS MPH feet Rate Location/Type
Mon 05:03:42 PM 32.8167 -96.8000 125° Southeast 177 204 2,300  Level Dallas / Fort Worth TRACON
Mon 05:04:42 PM 32.7833 -96.7500 128° Southeast 206 237 4,900 2,230 Climbing Dallas / Fort Worth TRACON
Mon 05:06:53 PM 32.7556 -96.6056 103° East 212 244 9,400 1,916 Climbing Fort Worth Center
Mon 05:07:53 PM 32.7800 -96.5092 73° East 271 312 11,000 1,600 Climbing Fort Worth Center
Mon 05:08:53 PM 32.8022 -96.4075 75° East 301 346 12,600 1,450 Climbing Fort Worth Center
Mon 05:09:53 PM 32.8286 -96.3033 73° East 324 373 13,900 1,050 Climbing Fort Worth Center
Mon 05:10:53 PM 32.8442 -96.1894 81° East 340 391 14,700 900 Climbing Fort Worth Center
Mon 05:11:53 PM 32.8511 -96.0583 86° East 375 432 15,700 1,100 Climbing Fort Worth Center
Mon 05:12:53 PM 32.8581 -95.9344 86° East 380 437 16,900 1,300 Climbing Fort Worth Center
Mon 05:13:53 PM 32.8628 -95.8083 87° East 387 445 18,300 1,150 Climbing Fort Worth Center
Mon 05:14:53 PM 32.8675 -95.6822 87° East 382 440 19,200 950 Climbing Fort Worth Center
Mon 05:15:53 PM 32.8719 -95.5508 88° East 387 445 20,200 1,000 Climbing Fort Worth Center
Mon 05:16:53 PM 32.8761 -95.4222 88° East 387 445 21,200 1,000 Climbing Fort Worth Center
Mon 05:17:53 PM 32.8886 -95.2933 83° East 387 445 22,200 950 Climbing Fort Worth Center
Mon 05:18:53 PM 32.9053 -95.1767 80° East 387 445 23,100 950 Climbing Fort Worth Center
Mon 05:19:53 PM 32.9281 -95.0497 78° East 387 445 24,100 1,000 Climbing Fort Worth Center
Mon 05:20:53 PM 32.9467 -94.9231 80° East 392 451 25,100 1,000 Climbing Fort Worth Center
Mon 05:21:53 PM 32.9669 -94.7964 79° East 392 451 26,100 850 Climbing Fort Worth Center
Mon 05:22:53 PM 32.9850 -94.6644 81° East 392 451 26,800 450 Climbing Fort Worth Center
Mon 05:23:53 PM 33.0050 -94.5325 80° East 392 451 27,000 100 Climbing Fort Worth Center
Mon 05:24:53 PM 33.0247 -94.3931 80° East 404 465 27,000 50 Level Fort Worth Center
Mon 05:25:53 PM 33.0483 -94.2461 79° East 429 494 27,100 450 Climbing Fort Worth Center
Mon 05:26:53 PM 33.0675 -94.1017 81° East 440 506 27,900 950 Climbing Fort Worth Center
Mon 05:27:53 PM 33.0867 -93.9622 81° East 440 506 29,000 800 Climbing Fort Worth Center
Mon 05:28:53 PM 33.1056 -93.8200 81° East 429 494 29,500 550 Climbing Fort Worth Center
Mon 05:29:53 PM 33.1283 -93.6653 80° East 429 494 30,100 550 Climbing Fort Worth Center
Mon 05:30:53 PM 33.1492 -93.5281 80° East 429 494 30,600 450 Climbing Fort Worth Center
Mon 05:31:53 PM 33.1697 -93.3883 80° East 429 494 31,000 200 Climbing Fort Worth Center
Mon 05:32:53 PM 33.1903 -93.2458 80° East 429 494 31,000  Level Fort Worth Center
Mon 05:33:53 PM 33.2103 -93.1008 81° East 429 494 31,000  Level Fort Worth Center
Mon 05:34:53 PM 33.2322 -92.9508 80° East 439 505 31,000  Level Fort Worth Center
Mon 05:35:53 PM 33.2519 -92.8008 81° East 451 519 31,000  Level Fort Worth Center
Mon 05:36:53 PM 33.2378 -92.6475 96° East 451 519 31,000  Level Fort Worth Center
Mon 05:37:53 PM 33.2069 -92.4953 104° East 456 525 31,000  Level Fort Worth Center
Mon 05:38:55 PM 33.1742 -92.3378 104° East 463 533 31,000  Level Memphis Center
Mon 05:39:55 PM 33.1431 -92.1858 104° East 470 541 31,000  Level Memphis Center
Mon 05:40:55 PM 33.1097 -92.0314 104° East 470 541 31,000  Level Memphis Center
Mon 05:41:55 PM 33.0800 -91.8944 104° East 475 547 31,000  Level Memphis Center
Mon 05:42:55 PM 33.0464 -91.7450 105° East 475 547 31,000  Level Memphis Center
Mon 05:43:55 PM 33.0103 -91.5886 105° East 480 552 31,000  Level Memphis Center
Mon 05:44:55 PM 32.9806 -91.4394 103° East 475 547 31,000  Level Memphis Center
Mon 05:45:55 PM 32.9461 -91.2856 105° East 475 547 31,000  Level Memphis Center
Mon 05:46:55 PM 32.9117 -91.1319 105° East 475 547 31,000  Level Memphis Center
Mon 05:47:55 PM 32.8792 -90.9781 104° East 475 547 31,000  Level Memphis Center
Mon 05:48:55 PM 32.8444 -90.8272 105° East 475 547 31,000  Level Memphis Center
Mon 05:49:55 PM 32.8114 -90.6761 105° East 475 547 31,000  Level Memphis Center
Mon 05:50:55 PM 32.7742 -90.5081 105° East 475 547 31,000  Level Memphis Center
Mon 05:51:55 PM 32.7386 -90.3572 106° East 470 541 31,000  Level Memphis Center
Mon 05:52:55 PM 32.7053 -90.2067 105° East 470 541 31,000  Level Memphis Center
Mon 05:53:55 PM 32.6694 -90.0561 106° East 475 547 31,000  Level Memphis Center
Mon 05:54:55 PM 32.6461 -89.9008 100° East 475 547 31,000  Level Memphis Center
Mon 05:55:55 PM 32.6267 -89.7456 98° East 475 547 31,000  Level Memphis Center
Mon 05:56:55 PM 32.6111 -89.6025 97° East 475 547 31,000  Level Memphis Center
Mon 05:57:55 PM 32.5914 -89.4475 99° East 475 547 31,000  Level Memphis Center
Mon 05:58:55 PM 32.5714 -89.2922 99° East 475 547 31,000  Level Memphis Center
Mon 05:59:55 PM 32.5511 -89.1422 99° East 475 547 31,000  Level Memphis Center
Mon 06:00:55 PM 32.5328 -88.9847 98° East 475 547 31,000  Level Memphis Center
Mon 06:01:55 PM 32.5122 -88.8350 99° East 469 540 31,000  Level Memphis Center
Mon 06:04:54 PM 32.4525 -88.3906 99° East 454 522 31,000  Level Atlanta Center
Mon 06:05:54 PM 32.4475 -88.2353 92° East 467 537 31,000  Level Atlanta Center
Mon 06:06:54 PM 32.4653 -88.0811 82° East 461 531 31,000 -300 Level Atlanta Center
Mon 06:07:54 PM 32.4806 -87.9242 83° East 466 536 30,400 -550 Descending Atlanta Center
Mon 06:08:54 PM 32.5061 -87.7725 79° East 472 543 29,900 -600 Descending Atlanta Center
Mon 06:09:54 PM 32.5397 -87.6286 74° East 466 536 29,200 -650 Descending Atlanta Center
Mon 06:10:54 PM 32.5711 -87.4844 75° East 455 524 28,600 -600 Descending Atlanta Center
Mon 06:11:54 PM 32.6019 -87.3428 75° East 449 517 28,000 -600 Descending Atlanta Center
Mon 06:12:54 PM 32.6350 -87.2011 74° East 449 517 27,400 -500 Descending Atlanta Center
Mon 06:13:54 PM 32.6656 -87.0589 76° East 449 517 27,000 -200 Descending Atlanta Center
Mon 06:14:54 PM 32.6961 -86.9144 76° East 449 517 27,000  Level Atlanta Center
Mon 06:15:54 PM 32.7267 -86.7722 76° East 449 517 27,000  Level Atlanta Center
Mon 06:16:54 PM 32.7589 -86.6275 75° East 449 517 27,000 -250 Level Atlanta Center
Mon 06:17:54 PM 32.7892 -86.4750 77° East 454 522 26,500 -500 Descending Atlanta Center
Mon 06:18:54 PM 32.8233 -86.3203 75° East 469 540 26,000 -500 Descending Atlanta Center
Mon 06:19:54 PM 32.8533 -86.1703 77° East 469 540 25,500 -550 Descending Atlanta Center
Mon 06:20:54 PM 32.8850 -86.0128 76° East 475 547 24,900 -500 Descending Atlanta Center
Mon 06:21:54 PM 32.9167 -85.8625 76° East 475 547 24,500 -450 Descending Atlanta Center
Mon 06:22:54 PM 32.9481 -85.7147 76° East 468 539 24,000 -550 Descending Atlanta Center
Mon 06:23:54 PM 32.9792 -85.5667 76° East 468 539 23,400 -550 Descending Atlanta Center
Mon 06:24:54 PM 33.0081 -85.4136 77° East 463 533 22,900 -500 Descending Atlanta Center
Mon 06:25:54 PM 33.0389 -85.2653 76° East 463 533 22,400 -1,900 Descending Atlanta Center
Mon 06:26:54 PM 33.1047 -85.1422 57° Northeast 414 476 19,100 -4,050 Descending Atlanta Center
Mon 06:27:54 PM 33.1786 -85.0417 49° Northeast 402 463 14,300 -2,550 Descending Atlanta Center
Mon 06:28:54 PM 33.2439 -84.9553 48° Northeast 369 425 14,000 -350 Descending Atlanta Center
Mon 06:29:54 PM 33.2967 -84.8814 49° Northeast 340 391 13,600 -700 Descending Atlanta Center
Mon 06:30:54 PM 33.3578 -84.8022 47° Northeast 321 369 12,600 -800 Descending Atlanta Center
Mon 06:31:54 PM 33.4144 -84.7208 50° Northeast 321 369 12,000 -300 Descending Atlanta Center
Mon 06:32:54 PM 33.4733 -84.6439 47° Northeast 316 364 12,000  Level Atlanta Center
Mon 06:33:54 PM 33.5281 -84.5722 48° Northeast 296 341 12,000 -500 Level Atlanta Center
Mon 06:34:54 PM 33.5431 -84.4875 78° East 253 291 11,000 -1,350 Descending Atlanta Center
Mon 06:35:54 PM 33.5433 -84.4028 90° East 253 291 9,300 -2,346 Descending Atlanta Center
Mon 06:37:07 PM 33.5500 -84.3000 86° East 227 261 5,800 -2,662 Descending Atlanta TRACON
Mon 06:38:07 PM 33.5833 -84.2500 51° Northeast 225 259 3,400 -1,474 Descending Atlanta TRACON
Mon 06:39:01 PM 33.6167 -84.2667 337° Northwest 191 220 3,000 -333 Descending Atlanta TRACON
Mon 06:39:55 PM 33.6333 -84.3167 292° West 167 192 2,800 -600 Descending Atlanta TRACON
Mon 06:41:01 PM 33.6333 -84.3667 270° West 150 173 1,800 -909 Descending Atlanta TRACON
Mon 06:43:00 PM 33.6333 -84.4167 292° West  Level FlightAware Approximate
Mon 06:50:00 PM 33.6367 -84.4279 292° West  Level Estimated
Mon 06:51:00 PM 33.6367 -84.4279 292° West  Level Estimated

Login

Don't have an account? Register now (free) for customized features, flight alerts, and more!